Aeroporto :
LOGIN :

Iscrizione | Disclaimer

   EN    FR    IT 

 










Sommario :    VFR   VFR Marginale   IFR   IFR Intensivo   IFR Molto Intensivo
Visibilità : 
Base nubi : 
>= 8 km
>= 3000ft
5 / 8 km
1000 / 3000 ft
1500m / 5 km
500 / 1000 ft
800 / 1500m
200 / 500 ft
< 800m
< 200 ft
Simboli :   Temporali  Nebbia  Neve Forte  Precipitazioni Forti  Vento > 20 kt
SIGMETs :   Varie  Temporali  Ghiacco  Turbolenza  Onda orograficha  Ceneri Vulcaniche






- Altitudine del aeroporto : 277 ft
- Codice IATA : JER


EGJJ - Jersey

ULTIMO METAR :
  • 090850Z 25012KT 9999 FEW003 BKN004 16/16 Q1016

METARs OBSOLETI :
  • 090820Z 25012KT 9999 BKN005 16/16 Q1016
  • 090750Z 25012KT 9999 FEW005 BKN007 16/16 Q1016
  • 090720Z 24011KT 9999 FEW005 BKN007 16/16 Q1016
  • 090650Z 22009KT 200V260 9999 FEW002 SCT006 16/16 Q1016
  • 090620Z 22006KT 190V250 9000 FEW002 SCT003 15/15 Q1016

TAF TAF EGJJ
Valido dal 09 a 09 ore il 09 a 18 ore UTC


090802Z 0909/0918 24011KT 4000 BR BKN003
TEMPO 0909/0918 9999 NSW BKN007
PROB30
TEMPO 0909/0918 0500 DZ FG OVC000
ATIS : +44 1534 498 073



MetMap, La meteo Aeronautica in un colpo d'occhio ! - Copyright ORBIFLY Dicembre 2007 - Disclaimer

ORBIFLY MET'MAP TEAM :

Programmazione e sviluppo : Alexandra Zaïnal
Concezione : Baudouin d'Aumeries
Aiuto per la programmazione : Marc-Olivier Méhu
Supporto tecnico e logistico : Manuel Goepfert
Aiuto per la traduzione : Arnaldo La Scala

Contatto : metmap@orbifly.com




FONTI E CREDITI :

   NOAA